PABT/BTT METAR and TAF weather

Enter ICAO airport designator
Station Type Date Time Source
PABT METAR 2019/08/17 09:53 UTC NOAA

PABT 170953Z 35005KT 10SM FEW200 07/M01 A3041 RMK AO2 SLP308 T00721006 $


Station Type Date Time Source
PABT Decoded METAR 2019/08/17 09:53 UTC NOAA

Station name not available
Aug 17, 2019 - 05:53 AM EDT / 2019.08.17 0953 UTC
Wind: from the N (350 degrees) at 6 MPH (5 KT):0
Visibility: 10 mile(s):0
Sky conditions: mostly clear
Temperature: 45.0 F (7.2 C)
Dew Point: 30.9 F (-0.6 C)
Relative Humidity: 57%
Pressure (altimeter): 30.41 in. Hg (1029 hPa)
ob: PABT 170953Z 35005KT 10SM FEW200 07/M01 A3041 RMK AO2 SLP308 T00721006
cycle: 10

Station Type Date Time Source
PABT TAF 2019/08/17 06:30 UTC NOAA

TAF PABT 170528Z 1706/1806 34006KT P6SM FEW010 BKN050
FM172100 03012KT P6SM SCT250

Example: see airport list